createdAt,value
2022-11-04T00:00:29.657Z,85.23
2022-11-04T00:01:26.373Z,85.33
2022-11-04T00:02:26.460Z,85.44
2022-11-04T00:03:26.341Z,85.44
2022-11-04T00:04:26.381Z,85.44
2022-11-04T00:05:26.328Z,85.54
2022-11-04T00:06:26.290Z,85.54
2022-11-04T00:07:26.302Z,85.64
2022-11-04T00:08:26.269Z,85.54
2022-11-04T00:09:26.316Z,85.85
2022-11-04T00:10:26.262Z,86.05
2022-11-04T00:11:26.266Z,85.95
2022-11-04T00:12:26.253Z,85.95
2022-11-04T00:13:26.245Z,86.05
2022-11-04T00:14:26.245Z,86.05
2022-11-04T00:15:26.236Z,86.25
2022-11-04T00:16:26.198Z,86.05
2022-11-04T00:17:26.194Z,86.25
2022-11-04T00:18:26.196Z,86.05
2022-11-04T00:19:26.174Z,86.46
2022-11-04T00:20:26.147Z,86.46
2022-11-04T00:21:26.133Z,86.15
2022-11-04T00:22:26.114Z,86.05
2022-11-04T00:23:26.168Z,86.36
2022-11-04T00:24:26.094Z,86.25
2022-11-04T00:25:26.195Z,86.25
2022-11-04T00:26:26.079Z,86.36
2022-11-04T00:27:26.060Z,86.66
2022-11-04T00:28:26.067Z,86.15
2022-11-04T00:29:26.050Z,85.95
2022-11-04T00:30:26.049Z,85.74
2022-11-04T00:31:26.017Z,85.54
2022-11-04T00:32:25.997Z,85.33
2022-11-04T00:33:26.051Z,85.64
2022-11-04T00:34:25.997Z,85.54
2022-11-04T00:35:26.021Z,85.95
2022-11-04T00:36:25.970Z,85.85
2022-11-04T00:37:25.957Z,85.64
2022-11-04T00:38:25.975Z,85.85
2022-11-04T00:39:25.952Z,86.15
2022-11-04T00:40:25.953Z,85.95
2022-11-04T00:41:26.358Z,85.74
2022-11-04T00:42:25.902Z,85.54
2022-11-04T00:43:25.869Z,85.85
2022-11-04T00:44:25.885Z,85.80
2022-11-04T00:45:25.915Z,85.54
2022-11-04T00:46:25.839Z,85.39
2022-11-04T00:47:25.831Z,85.60
2022-11-04T00:48:25.843Z,85.39
2022-11-04T00:49:25.877Z,85.19
2022-11-04T00:50:25.805Z,85.39
2022-11-04T00:51:25.799Z,85.39
2022-11-04T00:52:25.771Z,85.39
2022-11-04T00:53:25.773Z,85.39
2022-11-04T00:54:25.772Z,85.30
2022-11-04T00:55:25.776Z,85.30
2022-11-04T00:56:25.755Z,85.60
2022-11-04T00:57:25.724Z,85.50
2022-11-04T00:58:25.717Z,85.60
2022-11-04T00:59:25.755Z,85.74
2022-11-04T01:00:25.675Z,86.01
2022-11-04T01:01:25.821Z,86.05
2022-11-04T01:02:25.810Z,86.15
2022-11-04T01:03:25.644Z,85.80
2022-11-04T01:04:25.679Z,85.95
2022-11-04T01:05:25.666Z,85.74
2022-11-04T01:06:25.616Z,85.95
2022-11-04T01:07:25.629Z,85.85
2022-11-04T01:08:25.608Z,85.85
2022-11-04T01:09:25.618Z,85.64
2022-11-04T01:10:25.586Z,85.54
2022-11-04T01:11:25.579Z,85.64
2022-11-04T01:12:25.550Z,85.64
2022-11-04T01:13:25.558Z,85.64
2022-11-04T01:14:25.537Z,85.95
2022-11-04T01:15:25.548Z,86.05
2022-11-04T01:16:25.500Z,86.05
2022-11-04T01:17:25.512Z,86.05
2022-11-04T01:18:25.487Z,86.01
2022-11-04T01:19:25.491Z,85.64
2022-11-04T01:20:25.473Z,85.71
2022-11-04T01:21:25.488Z,85.44
2022-11-04T01:22:25.439Z,85.54
2022-11-04T01:23:25.434Z,85.74
2022-11-04T01:24:25.463Z,85.64
2022-11-04T01:25:25.390Z,85.74
2022-11-04T01:26:25.390Z,85.74
2022-11-04T01:27:25.414Z,85.64
2022-11-04T01:28:25.362Z,85.64
2022-11-04T01:29:25.353Z,85.74
2022-11-04T01:30:25.373Z,85.74
2022-11-04T01:31:25.331Z,85.64
2022-11-04T01:32:25.357Z,85.54
2022-11-04T01:33:25.374Z,85.74
2022-11-04T01:34:25.306Z,85.74
2022-11-04T01:35:25.302Z,85.74
2022-11-04T01:36:25.272Z,85.71
2022-11-04T01:37:25.295Z,85.39
2022-11-04T01:38:25.267Z,85.30
2022-11-04T01:39:25.286Z,85.50
2022-11-04T01:40:25.248Z,85.39
2022-11-04T01:41:25.216Z,85.39
2022-11-04T01:42:25.236Z,85.09
2022-11-04T01:43:25.220Z,85.09
2022-11-04T01:44:25.220Z,85.09
2022-11-04T01:45:25.164Z,84.78
2022-11-04T01:46:25.183Z,84.99
2022-11-04T01:47:25.154Z,84.88
2022-11-04T01:48:25.164Z,85.30
2022-11-04T01:49:25.181Z,85.39
2022-11-04T01:50:25.126Z,84.99
2022-11-04T01:51:25.109Z,84.99
2022-11-04T01:52:25.136Z,85.19
2022-11-04T01:53:25.087Z,85.39
2022-11-04T01:54:25.088Z,85.50
2022-11-04T01:55:25.055Z,85.71
2022-11-04T01:56:25.098Z,85.19
2022-11-04T01:57:25.040Z,84.99
2022-11-04T01:58:25.018Z,84.99
2022-11-04T01:59:25.009Z,85.09
2022-11-04T02:00:25.031Z,84.88
2022-11-04T02:01:25.143Z,84.88
2022-11-04T02:02:25.105Z,84.99
2022-11-04T02:03:24.992Z,84.78
2022-11-04T02:04:24.955Z,84.68
2022-11-04T02:05:24.960Z,84.68
2022-11-04T02:06:24.931Z,84.99
2022-11-04T02:07:24.963Z,85.19
2022-11-04T02:08:24.944Z,85.30
2022-11-04T02:09:24.927Z,85.30
2022-11-04T02:10:24.896Z,85.30
2022-11-04T02:11:24.900Z,85.30
2022-11-04T02:12:24.903Z,85.60
2022-11-04T02:13:24.851Z,85.50
2022-11-04T02:14:24.857Z,85.50
2022-11-04T02:15:24.862Z,85.39
2022-11-04T02:16:24.866Z,85.39
2022-11-04T02:17:24.815Z,85.60
2022-11-04T02:18:24.805Z,85.71
2022-11-04T02:19:24.799Z,85.50
2022-11-04T02:20:24.801Z,85.30
2022-11-04T02:21:24.784Z,85.50
2022-11-04T02:22:24.757Z,85.30
2022-11-04T02:23:24.767Z,85.39
2022-11-04T02:24:24.726Z,85.19
2022-11-04T02:25:24.720Z,85.60
2022-11-04T02:26:24.727Z,85.80
2022-11-04T02:27:24.739Z,85.91
2022-11-04T02:28:24.698Z,86.01
2022-11-04T02:29:24.666Z,86.01
2022-11-04T02:30:24.666Z,85.91
2022-11-04T02:31:24.665Z,86.01
2022-11-04T02:32:24.670Z,86.42
2022-11-04T02:33:24.624Z,86.22
2022-11-04T02:34:24.626Z,86.11
2022-11-04T02:35:24.613Z,86.01
2022-11-04T02:36:24.620Z,85.80
2022-11-04T02:37:24.640Z,85.71
2022-11-04T02:38:24.609Z,85.91
2022-11-04T02:39:24.556Z,85.80
2022-11-04T02:40:24.559Z,85.56
2022-11-04T02:41:24.535Z,85.36
2022-11-04T02:42:24.559Z,85.25
2022-11-04T02:43:24.507Z,85.36
2022-11-04T02:44:24.532Z,85.36
2022-11-04T02:45:24.502Z,85.25
2022-11-04T02:46:24.509Z,85.05
2022-11-04T02:47:24.522Z,85.05
2022-11-04T02:48:24.451Z,85.36
2022-11-04T02:49:24.443Z,85.77
2022-11-04T02:50:24.429Z,85.77
2022-11-04T02:51:24.411Z,85.66
2022-11-04T02:52:24.471Z,85.56
2022-11-04T02:53:24.420Z,85.36
2022-11-04T02:54:24.395Z,85.15
2022-11-04T02:55:24.385Z,85.25
2022-11-04T02:56:24.383Z,85.46
2022-11-04T02:57:24.388Z,85.56
2022-11-04T02:58:24.386Z,85.42
2022-11-04T02:59:24.345Z,85.42
2022-11-04T03:00:24.355Z,85.22
2022-11-04T03:01:24.384Z,84.77
2022-11-04T03:02:24.361Z,83.70
2022-11-04T03:03:24.327Z,82.50
2022-11-04T03:04:24.278Z,81.03
2022-11-04T03:05:24.288Z,79.97
2022-11-04T03:06:24.259Z,79.12
2022-11-04T03:07:24.279Z,78.50
2022-11-04T03:08:24.259Z,77.65
2022-11-04T03:09:24.235Z,77.45
2022-11-04T03:10:24.219Z,77.25
2022-11-04T03:11:24.195Z,77.14
2022-11-04T03:12:24.226Z,77.14
2022-11-04T03:13:24.209Z,76.80
2022-11-04T03:14:24.170Z,76.90
2022-11-04T03:15:24.222Z,76.90
2022-11-04T03:16:24.127Z,77.11
2022-11-04T03:17:24.175Z,77.21
2022-11-04T03:18:24.108Z,77.55
2022-11-04T03:19:24.097Z,77.65
2022-11-04T03:20:24.110Z,77.86
2022-11-04T03:21:24.091Z,77.86
2022-11-04T03:22:24.058Z,78.06
2022-11-04T03:23:24.071Z,78.37
2022-11-04T03:24:24.075Z,78.37
2022-11-04T03:25:24.079Z,78.57
2022-11-04T03:26:24.033Z,78.47
2022-11-04T03:27:24.009Z,78.67
2022-11-04T03:28:24.030Z,78.91
2022-11-04T03:29:24.016Z,78.81
2022-11-04T03:30:24.000Z,78.91
2022-11-04T03:31:23.963Z,79.02
2022-11-04T03:32:23.964Z,79.22
2022-11-04T03:33:23.984Z,79.02
2022-11-04T03:34:23.944Z,79.02
2022-11-04T03:35:23.956Z,78.71
2022-11-04T03:36:23.917Z,78.47
2022-11-04T03:37:23.892Z,78.27
2022-11-04T03:38:23.903Z,77.96
2022-11-04T03:39:23.897Z,77.75
2022-11-04T03:40:23.928Z,77.65
2022-11-04T03:41:23.857Z,77.55
2022-11-04T03:42:23.845Z,77.51
2022-11-04T03:43:23.854Z,77.51
2022-11-04T03:44:23.846Z,77.51
2022-11-04T03:45:23.826Z,77.75
2022-11-04T03:46:23.793Z,77.51
2022-11-04T03:47:23.786Z,77.41
2022-11-04T03:48:23.817Z,77.51
2022-11-04T03:49:23.791Z,77.41
2022-11-04T03:50:23.757Z,77.31
2022-11-04T03:51:23.737Z,77.11
2022-11-04T03:52:23.730Z,77.21
2022-11-04T03:53:23.791Z,77.21
2022-11-04T03:54:23.739Z,77.21
2022-11-04T03:55:23.708Z,77.21
2022-11-04T03:56:23.689Z,77.31
2022-11-04T03:57:23.667Z,77.31
2022-11-04T03:58:23.701Z,77.41
2022-11-04T03:59:23.650Z,77.41
2022-11-04T04:00:23.648Z,77.41
2022-11-04T04:01:23.710Z,77.51
2022-11-04T04:02:23.610Z,77.72
2022-11-04T04:03:23.620Z,77.65
2022-11-04T04:04:23.614Z,77.65
2022-11-04T04:05:23.642Z,77.75
2022-11-04T04:06:23.596Z,77.65
2022-11-04T04:07:23.560Z,77.55
2022-11-04T04:08:23.563Z,77.55
2022-11-04T04:09:23.560Z,77.45
2022-11-04T04:10:23.511Z,77.62
2022-11-04T04:11:23.565Z,77.65
2022-11-04T04:12:23.518Z,77.55
2022-11-04T04:13:23.506Z,77.65
2022-11-04T04:14:23.509Z,77.65
2022-11-04T04:15:23.463Z,77.65
2022-11-04T04:16:26.229Z,77.65
2022-11-04T04:17:23.448Z,77.55
2022-11-04T04:18:23.457Z,77.55
2022-11-04T04:19:23.453Z,77.55
2022-11-04T04:20:23.437Z,77.55
2022-11-04T04:21:23.407Z,77.65
2022-11-04T04:22:23.396Z,77.65
2022-11-04T04:23:23.416Z,77.55
2022-11-04T04:24:23.377Z,77.55
2022-11-04T04:25:23.419Z,77.45
2022-11-04T04:26:23.365Z,77.45
2022-11-04T04:27:23.350Z,77.45
2022-11-04T04:28:23.325Z,77.14
2022-11-04T04:29:23.306Z,77.04
2022-11-04T04:30:23.319Z,77.00
2022-11-04T04:31:23.277Z,76.90
2022-11-04T04:32:23.307Z,77.00
2022-11-04T04:33:23.280Z,76.90
2022-11-04T04:34:23.278Z,76.90
2022-11-04T04:35:23.259Z,76.70
2022-11-04T04:36:23.232Z,76.59
2022-11-04T04:37:23.247Z,76.59
2022-11-04T04:38:23.212Z,76.59
2022-11-04T04:39:23.180Z,76.59
2022-11-04T04:40:25.102Z,76.50
2022-11-04T04:41:23.198Z,76.39
2022-11-04T04:42:23.164Z,76.50
2022-11-04T04:43:23.150Z,76.59
2022-11-04T04:44:23.138Z,76.29
2022-11-04T04:45:23.163Z,76.29
2022-11-04T04:46:23.144Z,76.09
2022-11-04T04:47:23.090Z,76.29
2022-11-04T04:48:23.095Z,76.50
2022-11-04T04:49:23.105Z,76.70
2022-11-04T04:50:23.104Z,76.59
2022-11-04T04:51:23.065Z,77.11
2022-11-04T04:52:23.071Z,77.62
2022-11-04T04:53:23.045Z,77.72
2022-11-04T04:54:23.066Z,78.12
2022-11-04T04:55:23.024Z,78.06
2022-11-04T04:56:22.992Z,78.57
2022-11-04T04:57:23.004Z,78.37
2022-11-04T04:58:22.973Z,78.77
2022-11-04T04:59:23.008Z,78.88
2022-11-04T05:00:22.987Z,79.08
2022-11-04T05:01:23.032Z,79.59
2022-11-04T05:02:23.077Z,80.00
2022-11-04T05:03:22.957Z,80.51
2022-11-04T05:04:22.931Z,80.10
2022-11-04T05:05:22.936Z,79.80
2022-11-04T05:06:22.927Z,80.00
2022-11-04T05:07:22.909Z,80.61
2022-11-04T05:08:22.890Z,81.23
2022-11-04T05:09:22.836Z,81.46
2022-11-04T05:10:22.874Z,81.16
2022-11-04T05:11:26.066Z,81.37
2022-11-04T05:12:22.819Z,81.87
2022-11-04T05:13:22.842Z,82.59
2022-11-04T05:14:22.807Z,82.79
2022-11-04T05:15:22.793Z,83.30
2022-11-04T05:16:22.792Z,83.30
2022-11-04T05:17:22.767Z,83.40
2022-11-04T05:18:22.822Z,83.10
2022-11-04T05:19:22.744Z,83.34
2022-11-04T05:20:22.749Z,84.36
2022-11-04T05:21:22.722Z,84.16
2022-11-04T05:22:22.713Z,84.26
2022-11-04T05:23:22.723Z,84.26
2022-11-04T05:24:22.713Z,84.67
2022-11-04T05:25:22.683Z,84.47
2022-11-04T05:26:22.694Z,85.08
2022-11-04T05:27:22.690Z,84.71
2022-11-04T05:28:22.674Z,84.71
2022-11-04T05:29:22.646Z,85.12
2022-11-04T05:30:22.665Z,84.81
2022-11-04T05:31:22.591Z,84.71
2022-11-04T05:32:22.606Z,84.91
2022-11-04T05:33:22.585Z,85.12
2022-11-04T05:34:22.563Z,85.22
2022-11-04T05:35:22.586Z,85.42
2022-11-04T05:36:22.563Z,85.53
2022-11-04T05:37:22.544Z,85.53
2022-11-04T05:38:22.513Z,85.32
2022-11-04T05:39:22.526Z,85.32
2022-11-04T05:40:22.528Z,85.53
2022-11-04T05:41:22.537Z,85.73
2022-11-04T05:42:22.501Z,85.63
2022-11-04T05:43:22.509Z,85.83
2022-11-04T05:44:22.445Z,85.83
2022-11-04T05:45:22.517Z,85.94
2022-11-04T05:48:05.585Z,85.94
2022-11-04T05:48:37.790Z,86.24
2022-11-04T05:49:36.076Z,86.44
2022-11-04T05:50:32.546Z,86.79
2022-11-04T05:51:32.519Z,86.79
2022-11-04T05:52:32.547Z,86.90
2022-11-04T05:53:32.519Z,87.20
2022-11-04T05:54:32.510Z,87.71
2022-11-04T05:55:32.499Z,88.23
2022-11-04T05:56:32.477Z,88.53
2022-11-04T05:57:32.458Z,88.74
2022-11-04T05:58:32.500Z,88.64
2022-11-04T05:59:32.418Z,87.20
2022-11-04T06:00:32.474Z,85.97
2022-11-04T06:01:32.455Z,84.14
2022-11-04T06:02:32.434Z,84.41
2022-11-04T06:03:32.369Z,84.61
2022-11-04T06:04:32.401Z,84.61
2022-11-04T06:05:32.379Z,84.71
2022-11-04T06:06:32.374Z,84.91
2022-11-04T06:07:32.344Z,85.32
2022-11-04T06:08:32.349Z,85.53
2022-11-04T06:09:32.355Z,85.73
2022-11-04T06:10:32.316Z,85.73
2022-11-04T06:11:32.336Z,85.73
2022-11-04T06:12:32.291Z,85.42
2022-11-04T06:13:32.262Z,85.22
2022-11-04T06:14:32.257Z,85.53
2022-11-04T06:15:32.295Z,85.63
2022-11-04T06:16:32.238Z,85.63
2022-11-04T06:17:32.236Z,85.83
2022-11-04T06:18:32.203Z,85.94
2022-11-04T06:19:32.196Z,86.14
2022-11-04T06:20:32.243Z,86.14
2022-11-04T06:21:32.187Z,86.14
2022-11-04T06:22:32.183Z,86.14
2022-11-04T06:23:32.188Z,86.24
2022-11-04T06:24:32.136Z,86.35
2022-11-04T06:25:32.320Z,86.61
2022-11-04T06:26:32.202Z,86.00
2022-11-04T06:27:32.131Z,85.28
2022-11-04T06:28:32.103Z,85.38
2022-11-04T06:29:32.142Z,85.28
2022-11-04T06:30:32.096Z,85.38
2022-11-04T06:31:32.120Z,85.79
2022-11-04T06:32:32.079Z,85.59
2022-11-04T06:33:36.561Z,85.79
2022-11-04T06:34:33.057Z,84.88
2022-11-04T06:35:32.020Z,84.47
2022-11-04T06:36:32.030Z,84.26
2022-11-04T06:37:32.035Z,83.44
2022-11-04T06:38:31.993Z,83.24
2022-11-04T06:39:31.988Z,82.83
2022-11-04T06:40:31.979Z,82.73
2022-11-04T06:41:31.972Z,83.24
2022-11-04T06:42:31.947Z,83.54
2022-11-04T06:43:32.199Z,83.34
2022-11-04T06:44:31.962Z,83.44
2022-11-04T06:45:31.893Z,83.95
2022-11-04T06:46:31.900Z,83.85
2022-11-04T06:47:31.943Z,83.75
2022-11-04T06:48:31.882Z,82.53
2022-11-04T06:49:31.900Z,82.53
2022-11-04T06:50:31.852Z,82.12
2022-11-04T06:51:31.863Z,82.01
2022-11-04T06:52:31.836Z,82.42
2022-11-04T06:53:31.842Z,81.20
2022-11-04T06:54:31.872Z,81.20
2022-11-04T06:55:32.856Z,81.51
2022-11-04T06:56:31.799Z,81.20
2022-11-04T06:57:31.777Z,81.51
2022-11-04T06:58:31.995Z,82.12
2022-11-04T06:59:32.786Z,82.12
2022-11-04T07:00:31.755Z,81.20
2022-11-04T07:01:31.838Z,81.20
2022-11-04T07:02:31.796Z,80.89
2022-11-04T07:03:31.716Z,81.05
2022-11-04T07:04:31.739Z,81.20
2022-11-04T07:05:31.734Z,81.40
2022-11-04T07:06:31.673Z,80.99
2022-11-04T07:07:31.680Z,79.87
2022-11-04T07:08:31.691Z,80.07
2022-11-04T07:09:31.672Z,80.07
2022-11-04T07:10:31.690Z,79.57
2022-11-04T07:11:31.619Z,79.87
2022-11-04T07:12:31.638Z,79.57
2022-11-04T07:13:31.594Z,79.97
2022-11-04T07:14:31.570Z,79.46
2022-11-04T07:15:31.592Z,80.04
2022-11-04T07:16:31.549Z,80.04
2022-11-04T07:17:31.591Z,79.93
2022-11-04T07:18:31.540Z,79.52
2022-11-04T07:19:31.540Z,79.63
2022-11-04T07:20:31.544Z,79.83
2022-11-04T07:21:31.498Z,80.14
2022-11-04T07:22:31.541Z,80.14
2022-11-04T07:23:31.493Z,80.14
2022-11-04T07:24:31.494Z,79.93
2022-11-04T07:25:31.463Z,79.93
2022-11-04T07:26:31.485Z,80.34
2022-11-04T07:27:31.489Z,79.93
2022-11-04T07:28:31.445Z,79.73
2022-11-04T07:29:31.418Z,79.83
2022-11-04T07:30:31.400Z,79.73
2022-11-04T07:31:31.385Z,80.24
2022-11-04T07:32:31.362Z,79.52
2022-11-04T07:33:31.434Z,79.93
2022-11-04T07:34:31.384Z,80.04
2022-11-04T07:35:31.342Z,80.24
2022-11-04T07:36:31.343Z,80.44
2022-11-04T07:37:31.342Z,79.83
2022-11-04T07:38:31.440Z,79.83
2022-11-04T07:39:31.324Z,79.93
2022-11-04T07:40:31.295Z,80.14
2022-11-04T07:41:31.304Z,80.24
2022-11-04T07:42:31.290Z,80.34
2022-11-04T07:43:31.264Z,80.96
2022-11-04T07:44:31.278Z,81.05
2022-11-04T07:45:31.248Z,80.96
2022-11-04T07:46:32.584Z,80.85
2022-11-04T07:47:31.206Z,80.96
2022-11-04T07:48:31.195Z,79.93
2022-11-04T07:49:31.299Z,79.93
2022-11-04T07:50:31.254Z,79.32
2022-11-04T07:51:31.211Z,79.02
2022-11-04T07:52:31.168Z,79.12
2022-11-04T07:53:31.154Z,78.81
2022-11-04T07:54:31.481Z,79.52
2022-11-04T07:55:31.125Z,79.43
2022-11-04T07:56:31.173Z,79.12
2022-11-04T07:57:31.090Z,78.06
2022-11-04T07:58:31.111Z,77.38
2022-11-04T07:59:31.211Z,76.87
2022-11-04T08:00:31.070Z,77.38
2022-11-04T08:01:31.215Z,76.87
2022-11-04T08:02:34.996Z,76.67
2022-11-04T08:03:31.127Z,76.46
2022-11-04T08:04:31.011Z,75.85
2022-11-04T08:05:31.393Z,75.44
2022-11-04T08:06:31.014Z,75.75
2022-11-04T08:07:31.136Z,75.44
2022-11-04T08:08:31.064Z,75.85
2022-11-04T08:09:31.169Z,76.06
2022-11-04T08:10:30.943Z,75.95
2022-11-04T08:11:30.954Z,74.42
2022-11-04T08:12:31.057Z,73.81
2022-11-04T08:13:30.954Z,73.81
2022-11-04T08:14:30.923Z,74.49
2022-11-04T08:15:30.892Z,74.08
2022-11-04T08:16:34.349Z,74.08
2022-11-04T08:17:30.868Z,72.55
2022-11-04T08:18:31.402Z,71.84
2022-11-04T08:19:30.846Z,72.24
2022-11-04T08:20:30.933Z,72.34
2022-11-04T08:21:30.868Z,72.24
2022-11-04T08:22:33.091Z,72.34
2022-11-04T08:23:30.848Z,72.86
2022-11-04T08:24:30.785Z,73.27
2022-11-04T08:25:30.785Z,73.06
2022-11-04T08:26:30.808Z,72.55
2022-11-04T08:27:30.821Z,72.34
2022-11-04T08:28:31.018Z,72.14
2022-11-04T08:29:30.717Z,71.94
2022-11-04T08:30:30.801Z,72.24
2022-11-04T08:31:30.708Z,71.94
2022-11-04T08:32:30.705Z,72.07
2022-11-04T08:33:30.696Z,72.65
2022-11-04T08:34:30.704Z,73.06
2022-11-04T08:35:30.677Z,73.16
2022-11-04T08:36:30.694Z,73.16
2022-11-04T08:37:30.693Z,72.75
2022-11-04T08:38:30.652Z,73.98
2022-11-04T08:39:30.643Z,74.38
2022-11-04T08:40:30.624Z,74.38
2022-11-04T08:41:30.604Z,72.75
2022-11-04T08:42:30.602Z,72.00
2022-11-04T08:43:31.018Z,72.00
2022-11-04T08:44:30.598Z,71.91
2022-11-04T08:45:33.666Z,71.39
2022-11-04T08:46:30.545Z,71.36
2022-11-04T08:47:30.563Z,70.65
2022-11-04T08:48:30.567Z,70.34
2022-11-04T08:49:30.513Z,70.75
2022-11-04T08:50:30.514Z,70.34
2022-11-04T08:51:30.506Z,71.06
2022-11-04T08:52:30.558Z,69.83
2022-11-04T08:53:30.527Z,69.83
2022-11-04T08:54:30.446Z,70.44
2022-11-04T08:55:30.457Z,69.63
2022-11-04T08:56:30.445Z,69.63
2022-11-04T08:57:30.456Z,69.42
2022-11-04T08:58:30.483Z,69.96
2022-11-04T08:59:30.380Z,69.15
2022-11-04T09:00:30.427Z,69.35
2022-11-04T09:01:35.485Z,69.96
2022-11-04T09:02:31.350Z,69.96
2022-11-04T09:03:30.471Z,70.48
2022-11-04T09:04:30.353Z,69.96
2022-11-04T09:05:30.396Z,69.86
2022-11-04T09:06:30.313Z,70.48
2022-11-04T09:07:30.935Z,71.09
2022-11-04T09:08:30.326Z,71.12
2022-11-04T09:09:30.453Z,70.61
2022-11-04T09:10:30.338Z,71.02
2022-11-04T09:11:30.521Z,71.63
2022-11-04T09:12:30.266Z,71.84
2022-11-04T09:13:31.649Z,71.53
2022-11-04T09:14:30.226Z,71.63
2022-11-04T09:15:30.285Z,71.84
2022-11-04T09:16:30.286Z,72.14
2022-11-04T09:17:30.218Z,72.14
2022-11-04T09:18:30.556Z,72.45
2022-11-04T09:19:30.233Z,72.24
2022-11-04T09:20:30.345Z,71.94
2022-11-04T09:21:30.180Z,72.24
2022-11-04T09:22:30.137Z,71.73
2022-11-04T09:23:30.158Z,71.22
2022-11-04T09:24:30.105Z,71.84
2022-11-04T09:25:30.536Z,71.94
2022-11-04T09:26:30.184Z,72.34
2022-11-04T09:27:30.165Z,72.55
2022-11-04T09:28:30.603Z,72.17
2022-11-04T09:29:30.609Z,72.58
2022-11-04T09:30:30.124Z,72.58
2022-11-04T09:31:30.365Z,73.10
2022-11-04T09:32:30.633Z,72.99
2022-11-04T09:33:30.318Z,73.50
2022-11-04T09:34:30.975Z,72.58
2022-11-04T09:35:30.071Z,72.99
2022-11-04T09:36:30.062Z,72.99
2022-11-04T09:37:29.983Z,73.19
2022-11-04T09:38:29.950Z,72.96
2022-11-04T09:39:29.952Z,72.96
2022-11-04T09:40:29.985Z,72.96
2022-11-04T09:41:30.003Z,72.65
2022-11-04T09:42:29.952Z,72.14
2022-11-04T09:43:29.913Z,72.24
2022-11-04T09:44:29.979Z,71.73
2022-11-04T09:45:29.921Z,71.94
2022-11-04T09:46:29.942Z,71.94
2022-11-04T09:47:29.892Z,71.94
2022-11-04T09:48:29.864Z,71.73
2022-11-04T09:49:29.881Z,71.94
2022-11-04T09:50:29.841Z,72.24
2022-11-04T09:51:53.106Z,72.34
2022-11-04T09:52:30.782Z,72.34
2022-11-04T09:53:29.772Z,71.94
2022-11-04T09:54:29.787Z,70.72
2022-11-04T09:55:29.921Z,69.90
2022-11-04T09:56:29.888Z,69.38
2022-11-04T09:57:29.840Z,69.38
2022-11-04T09:58:29.768Z,69.29
2022-11-04T09:59:29.777Z,68.67
2022-11-04T10:00:29.780Z,69.38
2022-11-04T10:01:29.826Z,69.59
2022-11-04T10:02:29.754Z,70.10
2022-11-04T10:03:29.753Z,69.49
2022-11-04T10:04:29.746Z,68.88
2022-11-04T10:05:29.660Z,68.67
2022-11-04T10:06:29.706Z,68.77
2022-11-04T10:07:29.707Z,68.47
2022-11-04T10:08:32.723Z,67.99
2022-11-04T10:09:30.607Z,68.50
2022-11-04T10:10:29.620Z,69.01
2022-11-04T10:11:29.640Z,68.40
2022-11-04T10:12:29.917Z,68.50
2022-11-04T10:13:29.557Z,67.99
2022-11-04T10:14:35.176Z,68.19
2022-11-04T10:15:30.568Z,68.47
2022-11-04T10:16:29.554Z,68.57
2022-11-04T10:17:29.538Z,68.37
2022-11-04T10:18:29.637Z,67.85
2022-11-04T10:19:29.489Z,67.76
2022-11-04T10:20:29.523Z,68.37
2022-11-04T10:21:29.470Z,68.47
2022-11-04T10:22:29.450Z,67.27
2022-11-04T10:23:29.453Z,67.48
2022-11-04T10:24:29.453Z,67.68
2022-11-04T10:25:29.474Z,68.40
2022-11-04T10:26:29.424Z,68.19
2022-11-04T10:27:29.411Z,67.68
2022-11-04T10:28:29.646Z,67.68
2022-11-04T10:29:29.415Z,68.37
2022-11-04T10:30:29.702Z,68.09
2022-11-04T10:31:29.795Z,68.30
2022-11-04T10:32:30.393Z,68.37
2022-11-04T10:33:29.695Z,67.76
2022-11-04T10:34:29.356Z,67.55
2022-11-04T10:35:29.422Z,66.94
2022-11-04T10:36:29.339Z,67.18
2022-11-04T10:37:29.680Z,67.76
2022-11-04T10:38:29.536Z,67.04
2022-11-04T10:39:29.277Z,67.27
2022-11-04T10:40:29.298Z,67.79
2022-11-04T10:41:29.249Z,67.96
2022-11-04T10:42:29.246Z,67.65
2022-11-04T10:43:29.267Z,67.76
2022-11-04T10:44:29.269Z,67.55
2022-11-04T10:45:29.226Z,67.96
2022-11-04T10:46:30.492Z,68.06
2022-11-04T10:47:29.183Z,67.45
2022-11-04T10:48:29.182Z,67.45
2022-11-04T10:49:29.188Z,67.35
2022-11-04T10:50:31.120Z,67.45
2022-11-04T10:51:29.161Z,66.94
2022-11-04T10:52:29.170Z,67.24
2022-11-04T10:53:29.361Z,67.45
2022-11-04T10:54:29.126Z,67.85
2022-11-04T10:55:29.152Z,68.26
2022-11-04T10:56:29.127Z,67.45
2022-11-04T10:57:29.109Z,67.04
2022-11-04T10:58:29.078Z,66.74
2022-11-04T10:59:29.075Z,67.14
2022-11-04T11:00:29.098Z,67.24
2022-11-04T11:01:29.232Z,66.33
2022-11-04T11:02:29.096Z,66.74
2022-11-04T11:03:29.039Z,67.04
2022-11-04T11:04:29.033Z,67.14
2022-11-04T11:05:29.012Z,67.35
2022-11-04T11:06:29.008Z,67.45
2022-11-04T11:07:29.001Z,67.14
2022-11-04T11:08:29.035Z,67.14
2022-11-04T11:09:28.954Z,67.45
2022-11-04T11:10:28.936Z,67.45
2022-11-04T11:11:28.937Z,67.89
2022-11-04T11:12:50.099Z,68.26
2022-11-04T11:13:29.927Z,67.96
2022-11-04T11:14:28.877Z,67.96
2022-11-04T11:15:28.886Z,68.16
2022-11-04T11:16:28.864Z,68.37
2022-11-04T11:17:28.865Z,67.14
2022-11-04T11:18:28.895Z,67.45
2022-11-04T11:19:28.829Z,67.65
2022-11-04T11:20:28.795Z,67.45
2022-11-04T11:21:28.816Z,67.45
2022-11-04T11:22:28.800Z,67.24
2022-11-04T11:23:28.796Z,67.55
2022-11-04T11:24:28.770Z,67.55
2022-11-04T11:25:28.788Z,67.04
2022-11-04T11:26:28.737Z,66.53
2022-11-04T11:27:28.748Z,66.33
2022-11-04T11:28:28.737Z,66.53
2022-11-04T11:29:28.732Z,66.94
2022-11-04T11:30:28.960Z,66.02
2022-11-04T11:31:28.711Z,66.12
2022-11-04T11:32:28.695Z,66.33
2022-11-04T11:33:28.808Z,66.60
2022-11-04T11:34:28.682Z,67.21
2022-11-04T11:35:28.640Z,66.70
2022-11-04T11:36:28.665Z,66.19
2022-11-04T11:37:28.656Z,66.39
2022-11-04T11:38:28.650Z,66.39
2022-11-04T11:39:28.593Z,66.30
2022-11-04T11:40:28.580Z,66.50
2022-11-04T11:41:28.588Z,65.68
2022-11-04T11:42:28.552Z,65.89
2022-11-04T11:43:28.809Z,65.65
2022-11-04T11:44:28.576Z,65.45
2022-11-04T11:45:28.524Z,65.45
2022-11-04T11:46:28.600Z,65.01
2022-11-04T11:47:28.493Z,64.09
2022-11-04T11:48:28.484Z,64.09
2022-11-04T11:49:28.547Z,63.24
2022-11-04T11:50:28.454Z,63.45
2022-11-04T11:51:32.057Z,63.32
2022-11-04T11:52:28.487Z,63.73
2022-11-04T11:53:28.480Z,63.73
2022-11-04T11:54:28.424Z,63.32
2022-11-04T11:55:28.468Z,62.81
2022-11-04T11:56:40.506Z,62.81
2022-11-04T11:57:29.412Z,62.92
2022-11-04T12:00:36.727Z,63.12
2022-11-04T12:01:29.394Z,63.42
2022-11-04T12:02:28.412Z,63.53
2022-11-04T12:03:28.729Z,63.53
2022-11-04T12:06:29.642Z,63.19
2022-11-04T12:09:33.930Z,62.37
2022-11-04T12:10:49.668Z,62.17
2022-11-04T12:11:29.451Z,61.76
2022-11-04T12:12:28.379Z,61.66
2022-11-04T12:13:29.019Z,61.97
2022-11-04T12:14:28.235Z,61.36
2022-11-04T12:15:28.195Z,61.56
2022-11-04T12:16:28.195Z,62.04
2022-11-04T12:17:28.160Z,61.13
2022-11-04T12:18:28.145Z,61.02
2022-11-04T12:19:28.222Z,61.02
2022-11-04T12:20:28.114Z,60.59
2022-11-04T12:21:28.126Z,60.38
2022-11-04T12:22:28.103Z,59.95
2022-11-04T12:23:28.153Z,59.95
2022-11-04T12:24:28.072Z,59.62
2022-11-04T12:25:28.126Z,59.34
2022-11-04T12:26:28.078Z,59.34
2022-11-04T12:27:28.045Z,59.27
2022-11-04T12:28:28.045Z,59.60
2022-11-04T12:29:28.023Z,60.31
2022-11-04T12:30:33.888Z,60.41
2022-11-04T12:31:29.039Z,60.31
2022-11-04T12:32:28.004Z,60.41
2022-11-04T12:33:27.993Z,60.28
2022-11-04T12:34:27.967Z,60.18
2022-11-04T12:35:27.988Z,60.28
2022-11-04T12:36:27.946Z,59.98
2022-11-04T12:37:27.958Z,60.28
2022-11-04T12:38:27.970Z,60.52
2022-11-04T12:39:28.033Z,60.08
2022-11-04T12:40:27.919Z,59.27
2022-11-04T12:41:58.739Z,59.70
2022-11-04T12:42:32.734Z,59.60
2022-11-04T12:43:28.056Z,60.31
2022-11-04T12:44:28.510Z,60.41
2022-11-04T12:45:28.263Z,60.82
2022-11-04T12:46:27.911Z,60.41
2022-11-04T12:47:27.831Z,60.34
2022-11-04T12:48:27.869Z,60.54
2022-11-04T12:49:27.781Z,60.95
2022-11-04T12:50:27.830Z,61.08
2022-11-04T12:51:27.782Z,61.38
2022-11-04T12:52:27.794Z,62.02
2022-11-04T12:53:27.818Z,62.02
2022-11-04T12:54:27.791Z,61.90
2022-11-04T12:55:27.735Z,61.38
2022-11-04T12:56:27.712Z,61.59
2022-11-04T12:57:27.684Z,61.69
2022-11-04T12:58:27.693Z,61.59
2022-11-04T12:59:27.757Z,61.59